This is the latest recevied weather packets stored in our database for station/object IPT2-WX. If no packets are shown the sender has not sent any weather packets the latest 10 day(s).
| Time | Temp. | Humidity | Pressure | Rain* | Wind** | Luminosity | Snow |
|---|---|---|---|---|---|---|---|
| 1788135444 | 59° F | 70% | 765.2 mmHg | - | - | - | - |
| 1788131843 | 60° F | 59% | 765.1 mmHg | - | - | - | - |
| 1788128244 | 60° F | 47% | 764.8 mmHg | - | - | - | - |
| 1788124644 | 61° F | 44% | 764.5 mmHg | - | - | - | - |
| 1788121043 | 62° F | 39% | 764.7 mmHg | - | - | - | - |
| 1788117444 | 63° F | 36% | 764.6 mmHg | - | - | - | - |
| 1788113844 | 64° F | 33% | 764.5 mmHg | - | - | - | - |
| 1788110243 | 66° F | 29% | 764.4 mmHg | - | - | - | - |
| 1788106643 | 69° F | 25% | 763.9 mmHg | - | - | - | - |
| 1788103044 | 73° F | 20% | 763.4 mmHg | - | - | - | - |
| 1788099444 | 76° F | 18% | 763.4 mmHg | - | - | - | - |
| 1788095845 | 78° F | 18% | 763.4 mmHg | - | - | - | - |
| 1788092243 | 79° F | 19% | 763.6 mmHg | - | - | - | - |
| 1788088644 | 79° F | 22% | 763.4 mmHg | - | - | - | - |
| 1788085045 | 79° F | 25% | 763.6 mmHg | - | - | - | - |
| 1788081445 | 76° F | 29% | 764.2 mmHg | - | - | - | - |
| 1788077844 | 74° F | 30% | 764.7 mmHg | - | - | - | - |
| 1788074244 | 72° F | 33% | 765 mmHg | - | - | - | - |
| 1788070644 | 68° F | 39% | 764.9 mmHg | - | - | - | - |
| 1788067044 | 65° F | 46% | 764.5 mmHg | - | - | - | - |
| 1788063443 | 61° F | 51% | 764.5 mmHg | - | - | - | - |
| 1788059843 | 59° F | 50% | 764.6 mmHg | - | - | - | - |
| 1788056243 | 59° F | 49% | 764.5 mmHg | - | - | - | - |
| 1788052645 | 60° F | 45% | 764.6 mmHg | - | - | - | - |
| 1788049044 | 61° F | 42% | 764.3 mmHg | - | - | - | - |
* Rain since midnight (hover to see other rain measurements)
** Current wind speed in m/s (hover to see current wind gust speed)